sensor_id;sensor_type;location;lat;lon;timestamp;pressure;altitude;pressure_sealevel;temperature;humidity
30935;BME280;51033;42.648;23.292;2023-02-20T00:00:08;94176.88;;;8.75;48.34
30935;BME280;51033;42.648;23.292;2023-02-20T00:02:35;94172.91;;;8.58;48.85
30935;BME280;51033;42.648;23.292;2023-02-20T00:05:00;94157.69;;;8.50;48.86
30935;BME280;51033;42.648;23.292;2023-02-20T00:07:25;94139.94;;;8.32;49.08
30935;BME280;51033;42.648;23.292;2023-02-20T00:09:51;94163.34;;;8.44;49.14
30935;BME280;51033;42.648;23.292;2023-02-20T00:12:16;94156.84;;;8.04;50.25
30935;BME280;51033;42.648;23.292;2023-02-20T00:14:42;94149.75;;;7.99;50.70
30935;BME280;51033;42.648;23.292;2023-02-20T00:17:07;94153.38;;;8.03;51.03
30935;BME280;51033;42.648;23.292;2023-02-20T00:19:32;94162.88;;;7.91;51.58
30935;BME280;51033;42.648;23.292;2023-02-20T00:21:58;94145.13;;;7.73;51.67
30935;BME280;51033;42.648;23.292;2023-02-20T00:24:23;94138.38;;;7.61;52.50
30935;BME280;51033;42.648;23.292;2023-02-20T00:26:50;94128.13;;;7.36;52.57
30935;BME280;51033;42.648;23.292;2023-02-20T00:29:21;94167.03;;;7.54;52.90
30935;BME280;51033;42.648;23.292;2023-02-20T00:31:55;94162.75;;;7.58;52.96
30935;BME280;51033;42.648;23.292;2023-02-20T00:34:22;94167.03;;;7.54;53.11
30935;BME280;51033;42.648;23.292;2023-02-20T00:36:48;94146.22;;;7.48;52.91
30935;BME280;51033;42.648;23.292;2023-02-20T00:39:13;94137.38;;;7.57;52.38
30935;BME280;51033;42.648;23.292;2023-02-20T00:41:39;94133.81;;;7.86;51.78
30935;BME280;51033;42.648;23.292;2023-02-20T00:44:04;94120.13;;;7.79;51.56
30935;BME280;51033;42.648;23.292;2023-02-20T00:46:29;94140.03;;;7.95;51.21
30935;BME280;51033;42.648;23.292;2023-02-20T00:48:55;94130.09;;;7.87;50.80
30935;BME280;51033;42.648;23.292;2023-02-20T00:51:20;94145.91;;;7.92;50.47
30935;BME280;51033;42.648;23.292;2023-02-20T00:53:45;94157.41;;;8.01;49.66
30935;BME280;51033;42.648;23.292;2023-02-20T00:56:11;94172.94;;;7.89;50.06
30935;BME280;51033;42.648;23.292;2023-02-20T00:58:36;94149.63;;;7.91;49.02
30935;BME280;51033;42.648;23.292;2023-02-20T01:01:02;94153.50;;;8.12;47.89
30935;BME280;51033;42.648;23.292;2023-02-20T01:03:27;94157.66;;;8.18;47.81
30935;BME280;51033;42.648;23.292;2023-02-20T01:05:53;94163.19;;;8.22;47.93
30935;BME280;51033;42.648;23.292;2023-02-20T01:08:20;94161.69;;;8.15;48.58
30935;BME280;51033;42.648;23.292;2023-02-20T01:10:45;94192.09;;;8.18;49.12
30935;BME280;51033;42.648;23.292;2023-02-20T01:13:10;94197.78;;;8.11;50.04
30935;BME280;51033;42.648;23.292;2023-02-20T01:15:36;94194.13;;;7.89;51.00
30935;BME280;51033;42.648;23.292;2023-02-20T01:18:02;94178.97;;;7.76;51.59
30935;BME280;51033;42.648;23.292;2023-02-20T01:20:29;94199.56;;;7.79;51.89
30935;BME280;51033;42.648;23.292;2023-02-20T01:22:55;94197.16;;;7.58;52.84
30935;BME280;51033;42.648;23.292;2023-02-20T01:25:23;94176.53;;;7.37;53.31
30935;BME280;51033;42.648;23.292;2023-02-20T01:27:49;94188.91;;;7.41;53.64
30935;BME280;51033;42.648;23.292;2023-02-20T01:30:14;94189.97;;;7.40;54.05
30935;BME280;51033;42.648;23.292;2023-02-20T01:32:40;94199.78;;;7.58;53.88
30935;BME280;51033;42.648;23.292;2023-02-20T01:35:05;94191.78;;;7.63;53.51
30935;BME280;51033;42.648;23.292;2023-02-20T01:37:31;94202.72;;;7.81;53.19
30935;BME280;51033;42.648;23.292;2023-02-20T01:39:56;94210.59;;;7.86;53.13
30935;BME280;51033;42.648;23.292;2023-02-20T01:42:24;94227.34;;;8.00;52.90
30935;BME280;51033;42.648;23.292;2023-02-20T01:44:50;94230.34;;;8.12;52.65
30935;BME280;51033;42.648;23.292;2023-02-20T01:47:17;94225.84;;;8.12;52.58
30935;BME280;51033;42.648;23.292;2023-02-20T01:49:48;94236.50;;;7.89;53.59
30935;BME280;51033;42.648;23.292;2023-02-20T01:52:27;94222.66;;;7.73;54.58
30935;BME280;51033;42.648;23.292;2023-02-20T01:54:59;94221.03;;;7.53;55.15
30935;BME280;51033;42.648;23.292;2023-02-20T01:57:27;94197.69;;;7.37;55.50
30935;BME280;51033;42.648;23.292;2023-02-20T01:59:58;94229.63;;;7.45;55.49
30935;BME280;51033;42.648;23.292;2023-02-20T02:02:27;94218.47;;;7.48;55.38
30935;BME280;51033;42.648;23.292;2023-02-20T02:04:55;94224.97;;;7.37;55.12
30935;BME280;51033;42.648;23.292;2023-02-20T02:07:20;94257.13;;;7.44;55.57
30935;BME280;51033;42.648;23.292;2023-02-20T02:09:51;94245.13;;;7.33;55.61
30935;BME280;51033;42.648;23.292;2023-02-20T02:12:20;94240.03;;;7.13;54.86
30935;BME280;51033;42.648;23.292;2023-02-20T02:14:46;94254.91;;;7.33;54.67
30935;BME280;51033;42.648;23.292;2023-02-20T02:40:01;94221.66;;;6.45;53.79
30935;BME280;51033;42.648;23.292;2023-02-20T02:50:44;94250.28;;;6.28;54.59
30935;BME280;51033;42.648;23.292;2023-02-20T02:53:12;94256.38;;;6.28;54.78
30935;BME280;51033;42.648;23.292;2023-02-20T02:55:38;94265.22;;;6.48;54.69
30935;BME280;51033;42.648;23.292;2023-02-20T02:58:04;94260.22;;;6.41;54.61
30935;BME280;51033;42.648;23.292;2023-02-20T03:00:41;94252.50;;;6.16;55.24
30935;BME280;51033;42.648;23.292;2023-02-20T03:03:12;94255.38;;;6.14;55.43
30935;BME280;51033;42.648;23.292;2023-02-20T03:05:54;94259.84;;;6.24;55.05
30935;BME280;51033;42.648;23.292;2023-02-20T03:11:19;94256.16;;;6.15;55.39
30935;BME280;51033;42.648;23.292;2023-02-20T03:14:00;94271.00;;;6.11;55.65
30935;BME280;51033;42.648;23.292;2023-02-20T03:19:47;94272.81;;;6.15;55.63
30935;BME280;51033;42.648;23.292;2023-02-20T03:22:33;94273.09;;;6.09;55.82
30935;BME280;51033;42.648;23.292;2023-02-20T03:25:20;94280.56;;;5.96;55.97
30935;BME280;51033;42.648;23.292;2023-02-20T03:30:26;94282.09;;;6.02;56.06
30935;BME280;51033;42.648;23.292;2023-02-20T03:33:11;94255.19;;;6.00;55.38
30935;BME280;51033;42.648;23.292;2023-02-20T03:35:58;94294.72;;;6.21;55.23
30935;BME280;51033;42.648;23.292;2023-02-20T03:38:47;94275.84;;;5.88;55.63
30935;BME280;51033;42.648;23.292;2023-02-20T03:41:35;94295.72;;;5.76;55.93
30935;BME280;51033;42.648;23.292;2023-02-20T03:44:22;94289.59;;;5.85;55.38
30935;BME280;51033;42.648;23.292;2023-02-20T03:46:49;94309.81;;;6.10;55.05
30935;BME280;51033;42.648;23.292;2023-02-20T03:49:26;94287.91;;;6.05;54.69
30935;BME280;51033;42.648;23.292;2023-02-20T03:51:53;94300.28;;;6.14;54.32
30935;BME280;51033;42.648;23.292;2023-02-20T03:54:22;94282.44;;;5.91;54.72
30935;BME280;51033;42.648;23.292;2023-02-20T03:56:49;94304.38;;;5.91;54.74
30935;BME280;51033;42.648;23.292;2023-02-20T04:01:48;94297.88;;;5.64;54.62
30935;BME280;51033;42.648;23.292;2023-02-20T04:04:20;94328.16;;;5.81;54.59
30935;BME280;51033;42.648;23.292;2023-02-20T04:06:49;94350.81;;;5.87;54.61
30935;BME280;51033;42.648;23.292;2023-02-20T04:09:20;94304.44;;;5.71;54.35
30935;BME280;51033;42.648;23.292;2023-02-20T04:11:50;94322.56;;;5.93;54.08
30935;BME280;51033;42.648;23.292;2023-02-20T04:14:19;94296.44;;;5.91;53.63
30935;BME280;51033;42.648;23.292;2023-02-20T04:16:51;94331.25;;;5.98;54.11
30935;BME280;51033;42.648;23.292;2023-02-20T04:19:18;94332.88;;;5.89;54.44
30935;BME280;51033;42.648;23.292;2023-02-20T04:21:49;94288.81;;;5.85;54.04
30935;BME280;51033;42.648;23.292;2023-02-20T04:24:20;94311.50;;;5.86;54.52
30935;BME280;51033;42.648;23.292;2023-02-20T04:26:46;94322.88;;;5.81;55.14
30935;BME280;51033;42.648;23.292;2023-02-20T04:29:12;94326.03;;;5.83;54.72
30935;BME280;51033;42.648;23.292;2023-02-20T04:31:38;94297.06;;;5.68;54.71
30935;BME280;51033;42.648;23.292;2023-02-20T04:34:03;94321.75;;;5.97;54.56
30935;BME280;51033;42.648;23.292;2023-02-20T04:36:28;94314.97;;;5.81;54.56
30935;BME280;51033;42.648;23.292;2023-02-20T04:38:54;94318.03;;;6.04;54.20
30935;BME280;51033;42.648;23.292;2023-02-20T04:41:19;94333.00;;;6.23;53.89
30935;BME280;51033;42.648;23.292;2023-02-20T04:43:45;94311.72;;;5.99;53.36
30935;BME280;51033;42.648;23.292;2023-02-20T04:46:11;94325.91;;;6.09;53.42
30935;BME280;51033;42.648;23.292;2023-02-20T04:48:36;94309.09;;;5.94;52.80
30935;BME280;51033;42.648;23.292;2023-02-20T04:51:02;94326.81;;;5.89;52.28
30935;BME280;51033;42.648;23.292;2023-02-20T04:53:27;94332.31;;;5.92;52.43
30935;BME280;51033;42.648;23.292;2023-02-20T04:55:53;94354.56;;;5.76;52.62
30935;BME280;51033;42.648;23.292;2023-02-20T04:58:18;94307.72;;;5.43;52.78
30935;BME280;51033;42.648;23.292;2023-02-20T05:00:43;94342.72;;;5.69;52.71
30935;BME280;51033;42.648;23.292;2023-02-20T05:03:09;94347.22;;;5.58;52.61
30935;BME280;51033;42.648;23.292;2023-02-20T05:05:34;94336.75;;;5.43;52.51
30935;BME280;51033;42.648;23.292;2023-02-20T05:08:02;94373.91;;;5.46;52.88
30935;BME280;51033;42.648;23.292;2023-02-20T05:10:30;94367.28;;;5.54;52.28
30935;BME280;51033;42.648;23.292;2023-02-20T05:12:56;94369.41;;;5.57;52.14
30935;BME280;51033;42.648;23.292;2023-02-20T05:15:23;94363.59;;;5.55;51.50
30935;BME280;51033;42.648;23.292;2023-02-20T05:17:49;94342.25;;;5.51;50.97
30935;BME280;51033;42.648;23.292;2023-02-20T05:20:15;94372.06;;;5.47;51.64
30935;BME280;51033;42.648;23.292;2023-02-20T05:22:44;94375.78;;;5.36;52.06
30935;BME280;51033;42.648;23.292;2023-02-20T05:25:09;94387.63;;;5.43;52.19
30935;BME280;51033;42.648;23.292;2023-02-20T05:27:35;94392.91;;;5.43;52.19
30935;BME280;51033;42.648;23.292;2023-02-20T05:30:01;94376.84;;;5.35;52.37
30935;BME280;51033;42.648;23.292;2023-02-20T05:32:28;94392.16;;;5.33;52.77
30935;BME280;51033;42.648;23.292;2023-02-20T05:34:54;94396.34;;;5.34;53.16
30935;BME280;51033;42.648;23.292;2023-02-20T05:37:20;94387.13;;;5.21;53.37
30935;BME280;51033;42.648;23.292;2023-02-20T05:39:46;94397.44;;;5.18;53.62
30935;BME280;51033;42.648;23.292;2023-02-20T05:42:12;94406.41;;;5.22;53.81
30935;BME280;51033;42.648;23.292;2023-02-20T05:44:37;94397.69;;;5.21;53.69
30935;BME280;51033;42.648;23.292;2023-02-20T05:47:03;94406.09;;;5.38;53.75
30935;BME280;51033;42.648;23.292;2023-02-20T05:49:29;94367.34;;;5.24;53.19
30935;BME280;51033;42.648;23.292;2023-02-20T05:51:55;94392.66;;;5.45;53.29
30935;BME280;51033;42.648;23.292;2023-02-20T05:54:21;94376.00;;;5.60;52.75
30935;BME280;51033;42.648;23.292;2023-02-20T05:56:47;94390.69;;;5.96;51.60
30935;BME280;51033;42.648;23.292;2023-02-20T05:59:16;94395.13;;;6.06;49.81
30935;BME280;51033;42.648;23.292;2023-02-20T06:01:42;94373.53;;;5.88;49.43
30935;BME280;51033;42.648;23.292;2023-02-20T06:04:07;94358.75;;;5.82;48.56
30935;BME280;51033;42.648;23.292;2023-02-20T06:06:38;94369.31;;;5.87;48.31
30935;BME280;51033;42.648;23.292;2023-02-20T06:09:05;94393.84;;;5.88;47.89
30935;BME280;51033;42.648;23.292;2023-02-20T06:11:39;94371.53;;;5.55;48.37
30935;BME280;51033;42.648;23.292;2023-02-20T06:14:05;94427.38;;;5.82;47.82
30935;BME280;51033;42.648;23.292;2023-02-20T06:16:32;94415.72;;;5.98;48.61
30935;BME280;51033;42.648;23.292;2023-02-20T06:18:58;94405.13;;;6.09;48.19
30935;BME280;51033;42.648;23.292;2023-02-20T06:21:25;94423.09;;;6.17;48.25
30935;BME280;51033;42.648;23.292;2023-02-20T06:23:52;94388.25;;;6.10;47.59
30935;BME280;51033;42.648;23.292;2023-02-20T06:26:19;94404.06;;;6.15;47.68
30935;BME280;51033;42.648;23.292;2023-02-20T06:28:45;94392.19;;;6.17;47.09
30935;BME280;51033;42.648;23.292;2023-02-20T06:31:20;94391.44;;;6.07;47.04
30935;BME280;51033;42.648;23.292;2023-02-20T06:33:45;94380.91;;;5.96;47.80
30935;BME280;51033;42.648;23.292;2023-02-20T06:36:18;94416.75;;;6.08;47.82
30935;BME280;51033;42.648;23.292;2023-02-20T06:38:44;94420.50;;;6.02;47.28
30935;BME280;51033;42.648;23.292;2023-02-20T06:41:09;94406.00;;;5.89;47.76
30935;BME280;51033;42.648;23.292;2023-02-20T06:43:35;94420.75;;;6.05;47.51
30935;BME280;51033;42.648;23.292;2023-02-20T06:46:00;94431.00;;;6.22;47.90
30935;BME280;51033;42.648;23.292;2023-02-20T06:48:25;94452.63;;;6.29;48.02
30935;BME280;51033;42.648;23.292;2023-02-20T06:50:51;94427.84;;;6.10;48.28
30935;BME280;51033;42.648;23.292;2023-02-20T06:53:19;94429.13;;;6.27;48.43
30935;BME280;51033;42.648;23.292;2023-02-20T06:55:44;94424.16;;;6.16;48.45
30935;BME280;51033;42.648;23.292;2023-02-20T06:58:10;94433.63;;;6.27;48.24
30935;BME280;51033;42.648;23.292;2023-02-20T07:00:35;94442.59;;;6.36;47.84
30935;BME280;51033;42.648;23.292;2023-02-20T07:03:01;94429.75;;;5.94;47.46
30935;BME280;51033;42.648;23.292;2023-02-20T07:05:26;94416.84;;;5.82;47.51
30935;BME280;51033;42.648;23.292;2023-02-20T07:07:53;94434.03;;;5.70;47.89
30935;BME280;51033;42.648;23.292;2023-02-20T07:10:19;94456.16;;;5.94;48.39
30935;BME280;51033;42.648;23.292;2023-02-20T07:12:44;94441.06;;;6.05;47.98
30935;BME280;51033;42.648;23.292;2023-02-20T07:15:10;94463.22;;;6.24;47.23
30935;BME280;51033;42.648;23.292;2023-02-20T07:17:44;94444.25;;;6.07;46.98
30935;BME280;51033;42.648;23.292;2023-02-20T07:20:13;94416.75;;;6.13;46.92
30935;BME280;51033;42.648;23.292;2023-02-20T07:22:38;94472.13;;;6.43;45.69
30935;BME280;51033;42.648;23.292;2023-02-20T07:25:04;94466.81;;;6.48;46.31
30935;BME280;51033;42.648;23.292;2023-02-20T07:27:30;94461.28;;;6.50;46.11
30935;BME280;51033;42.648;23.292;2023-02-20T07:29:58;94472.53;;;6.65;45.79
30935;BME280;51033;42.648;23.292;2023-02-20T07:32:23;94397.19;;;6.14;45.98
30935;BME280;51033;42.648;23.292;2023-02-20T07:34:49;94426.22;;;6.29;44.75
30935;BME280;51033;42.648;23.292;2023-02-20T07:37:15;94464.72;;;6.50;45.02
30935;BME280;51033;42.648;23.292;2023-02-20T07:39:40;94468.38;;;6.59;45.05
30935;BME280;51033;42.648;23.292;2023-02-20T07:42:06;94439.88;;;6.41;45.44
30935;BME280;51033;42.648;23.292;2023-02-20T07:44:32;94462.84;;;6.51;43.99
30935;BME280;51033;42.648;23.292;2023-02-20T07:46:57;94453.16;;;6.36;43.68
30935;BME280;51033;42.648;23.292;2023-02-20T07:49:23;94472.09;;;6.48;43.40
30935;BME280;51033;42.648;23.292;2023-02-20T07:51:48;94486.34;;;6.52;42.77
30935;BME280;51033;42.648;23.292;2023-02-20T07:54:14;94485.59;;;6.47;42.36
30935;BME280;51033;42.648;23.292;2023-02-20T07:56:42;94468.22;;;6.35;42.07
30935;BME280;51033;42.648;23.292;2023-02-20T07:59:07;94454.31;;;5.89;42.20
30935;BME280;51033;42.648;23.292;2023-02-20T08:01:34;94472.72;;;6.15;42.23
30935;BME280;51033;42.648;23.292;2023-02-20T08:03:59;94472.19;;;6.28;42.03
30935;BME280;51033;42.648;23.292;2023-02-20T08:06:25;94492.47;;;6.48;41.19
30935;BME280;51033;42.648;23.292;2023-02-20T08:08:51;94474.78;;;6.43;41.46
30935;BME280;51033;42.648;23.292;2023-02-20T08:11:17;94482.16;;;6.41;41.54
30935;BME280;51033;42.648;23.292;2023-02-20T08:13:44;94486.34;;;6.57;41.01
30935;BME280;51033;42.648;23.292;2023-02-20T08:16:09;94486.88;;;6.54;41.31
30935;BME280;51033;42.648;23.292;2023-02-20T08:18:35;94481.66;;;6.44;41.68
30935;BME280;51033;42.648;23.292;2023-02-20T08:21:00;94480.59;;;6.40;41.59
30935;BME280;51033;42.648;23.292;2023-02-20T08:23:29;94446.53;;;6.38;41.60
30935;BME280;51033;42.648;23.292;2023-02-20T08:25:54;94504.56;;;6.59;41.54
30935;BME280;51033;42.648;23.292;2023-02-20T08:28:20;94502.09;;;6.77;40.90
30935;BME280;51033;42.648;23.292;2023-02-20T08:30:46;94516.63;;;6.80;41.18
30935;BME280;51033;42.648;23.292;2023-02-20T08:33:12;94520.13;;;6.65;42.13
30935;BME280;51033;42.648;23.292;2023-02-20T08:35:40;94521.44;;;6.73;42.29
30935;BME280;51033;42.648;23.292;2023-02-20T08:38:21;94503.94;;;6.82;42.54
30935;BME280;51033;42.648;23.292;2023-02-20T08:40:47;94484.31;;;6.93;41.82
30935;BME280;51033;42.648;23.292;2023-02-20T08:43:12;94502.75;;;7.08;41.29
30935;BME280;51033;42.648;23.292;2023-02-20T08:45:41;94501.72;;;7.04;40.78
30935;BME280;51033;42.648;23.292;2023-02-20T08:48:09;94491.44;;;6.98;40.93
30935;BME280;51033;42.648;23.292;2023-02-20T08:50:35;94494.00;;;7.08;40.66
30935;BME280;51033;42.648;23.292;2023-02-20T08:53:00;94468.53;;;6.78;39.94
30935;BME280;51033;42.648;23.292;2023-02-20T08:55:26;94510.47;;;6.95;40.15
30935;BME280;51033;42.648;23.292;2023-02-20T08:58:10;94507.25;;;7.03;40.17
30935;BME280;51033;42.648;23.292;2023-02-20T09:00:35;94517.34;;;6.96;40.24
30935;BME280;51033;42.648;23.292;2023-02-20T09:03:01;94473.31;;;6.71;39.79
30935;BME280;51033;42.648;23.292;2023-02-20T09:05:28;94511.13;;;6.71;40.48
30935;BME280;51033;42.648;23.292;2023-02-20T09:07:54;94510.53;;;6.90;40.85
30935;BME280;51033;42.648;23.292;2023-02-20T09:10:20;94496.19;;;6.96;40.91
30935;BME280;51033;42.648;23.292;2023-02-20T09:12:48;94512.81;;;7.01;40.98
30935;BME280;51033;42.648;23.292;2023-02-20T09:15:14;94505.63;;;7.12;40.59
30935;BME280;51033;42.648;23.292;2023-02-20T09:17:43;94479.28;;;6.92;40.88
30935;BME280;51033;42.648;23.292;2023-02-20T09:20:10;94496.59;;;7.18;41.50
30935;BME280;51033;42.648;23.292;2023-02-20T09:22:36;94479.59;;;6.80;41.54
30935;BME280;51033;42.648;23.292;2023-02-20T09:25:05;94459.31;;;6.70;41.56
30935;BME280;51033;42.648;23.292;2023-02-20T09:27:32;94486.16;;;6.93;41.83
30935;BME280;51033;42.648;23.292;2023-02-20T09:29:57;94473.53;;;6.84;41.75
30935;BME280;51033;42.648;23.292;2023-02-20T09:32:23;94499.88;;;6.95;42.03
30935;BME280;51033;42.648;23.292;2023-02-20T09:34:48;94516.84;;;6.94;41.98
30935;BME280;51033;42.648;23.292;2023-02-20T09:37:14;94496.97;;;6.96;42.28
30935;BME280;51033;42.648;23.292;2023-02-20T09:39:39;94472.91;;;6.98;42.33
30935;BME280;51033;42.648;23.292;2023-02-20T09:42:38;94502.91;;;7.22;42.09
30935;BME280;51033;42.648;23.292;2023-02-20T09:45:13;94499.66;;;7.30;41.80
30935;BME280;51033;42.648;23.292;2023-02-20T09:48:00;94502.28;;;7.35;41.77
30935;BME280;51033;42.648;23.292;2023-02-20T09:53:10;94496.59;;;7.18;41.62
30935;BME280;51033;42.648;23.292;2023-02-20T09:55:40;94492.97;;;7.43;41.39
30935;BME280;51033;42.648;23.292;2023-02-20T09:58:06;94502.69;;;7.52;40.69
30935;BME280;51033;42.648;23.292;2023-02-20T10:00:36;94520.00;;;7.73;40.64
30935;BME280;51033;42.648;23.292;2023-02-20T10:05:31;94517.22;;;7.89;38.18
30935;BME280;51033;42.648;23.292;2023-02-20T10:07:57;94515.84;;;7.62;38.10
30935;BME280;51033;42.648;23.292;2023-02-20T10:10:25;94519.06;;;7.54;36.78
30935;BME280;51033;42.648;23.292;2023-02-20T10:15:58;94501.91;;;7.52;37.41
30935;BME280;51033;42.648;23.292;2023-02-20T10:21:35;94472.03;;;7.46;36.83
30935;BME280;51033;42.648;23.292;2023-02-20T10:26:35;94485.00;;;7.82;36.56
30935;BME280;51033;42.648;23.292;2023-02-20T10:29:15;94443.44;;;7.82;36.19
30935;BME280;51033;42.648;23.292;2023-02-20T10:31:52;94471.69;;;8.15;35.67
30935;BME280;51033;42.648;23.292;2023-02-20T10:34:35;94440.28;;;8.04;35.78
30935;BME280;51033;42.648;23.292;2023-02-20T10:37:10;94404.88;;;7.95;35.45
30935;BME280;51033;42.648;23.292;2023-02-20T10:39:37;94402.97;;;7.77;35.30
30935;BME280;51033;42.648;23.292;2023-02-20T10:42:09;94466.13;;;8.12;34.88
30935;BME280;51033;42.648;23.292;2023-02-20T10:44:50;94322.78;;;7.18;35.29
30935;BME280;51033;42.648;23.292;2023-02-20T10:50:00;94470.72;;;8.30;35.41
30935;BME280;51033;42.648;23.292;2023-02-20T10:52:34;94415.88;;;8.07;35.06
30935;BME280;51033;42.648;23.292;2023-02-20T10:55:16;94417.63;;;8.17;35.23
30935;BME280;51033;42.648;23.292;2023-02-20T10:58:03;94472.16;;;8.41;35.87
30935;BME280;51033;42.648;23.292;2023-02-20T11:00:35;94460.38;;;8.52;35.66
30935;BME280;51033;42.648;23.292;2023-02-20T11:03:11;94438.81;;;8.40;35.55
30935;BME280;51033;42.648;23.292;2023-02-20T11:05:52;94436.38;;;8.44;35.80
30935;BME280;51033;42.648;23.292;2023-02-20T11:08:18;94448.72;;;8.72;35.85
30935;BME280;51033;42.648;23.292;2023-02-20T11:10:53;94443.16;;;8.74;35.84
30935;BME280;51033;42.648;23.292;2023-02-20T11:13:23;94387.81;;;8.48;36.15
30935;BME280;51033;42.648;23.292;2023-02-20T11:15:54;94422.34;;;8.81;36.06
30935;BME280;51033;42.648;23.292;2023-02-20T11:18:37;94408.31;;;8.80;35.80
30935;BME280;51033;42.648;23.292;2023-02-20T11:21:03;94425.06;;;8.76;35.71
30935;BME280;51033;42.648;23.292;2023-02-20T11:23:41;94425.78;;;8.63;36.42
30935;BME280;51033;42.648;23.292;2023-02-20T11:29:16;94414.91;;;8.83;36.37
30935;BME280;51033;42.648;23.292;2023-02-20T11:31:41;94398.78;;;8.79;35.73
30935;BME280;51033;42.648;23.292;2023-02-20T11:34:15;94407.75;;;8.83;36.44
30935;BME280;51033;42.648;23.292;2023-02-20T11:36:51;94382.84;;;8.42;36.58
30935;BME280;51033;42.648;23.292;2023-02-20T11:39:36;94347.94;;;8.16;36.51
30935;BME280;51033;42.648;23.292;2023-02-20T11:42:14;94357.25;;;8.32;35.98
30935;BME280;51033;42.648;23.292;2023-02-20T11:44:42;94386.94;;;8.53;36.01
30935;BME280;51033;42.648;23.292;2023-02-20T11:47:26;94416.41;;;8.70;36.05
30935;BME280;51033;42.648;23.292;2023-02-20T11:52:54;94415.13;;;8.68;36.04
30935;BME280;51033;42.648;23.292;2023-02-20T11:55:23;94402.00;;;8.76;35.92
30935;BME280;51033;42.648;23.292;2023-02-20T11:57:49;94406.44;;;8.99;35.95
30935;BME280;51033;42.648;23.292;2023-02-20T12:00:18;94393.53;;;8.93;35.74
30935;BME280;51033;42.648;23.292;2023-02-20T12:08:34;94403.00;;;8.99;35.27
30935;BME280;51033;42.648;23.292;2023-02-20T12:11:07;94419.41;;;9.20;35.75
30935;BME280;51033;42.648;23.292;2023-02-20T12:13:38;94405.47;;;9.14;34.32
30935;BME280;51033;42.648;23.292;2023-02-20T12:24:24;94413.47;;;9.09;35.05
30935;BME280;51033;42.648;23.292;2023-02-20T12:26:57;94406.03;;;9.11;35.14
30935;BME280;51033;42.648;23.292;2023-02-20T12:29:45;94423.16;;;9.19;34.86
30935;BME280;51033;42.648;23.292;2023-02-20T12:35:32;94409.38;;;8.98;35.11
30935;BME280;51033;42.648;23.292;2023-02-20T12:46:22;94417.34;;;9.17;35.73
30935;BME280;51033;42.648;23.292;2023-02-20T12:54:59;94413.53;;;9.23;35.48
30935;BME280;51033;42.648;23.292;2023-02-20T12:59:27;94403.97;;;9.40;35.61
30935;BME280;51033;42.648;23.292;2023-02-20T13:02:02;94392.16;;;9.33;35.07
30935;BME280;51033;42.648;23.292;2023-02-20T13:04:41;94377.75;;;9.20;35.53
30935;BME280;51033;42.648;23.292;2023-02-20T13:07:16;94389.59;;;9.09;35.73
30935;BME280;51033;42.648;23.292;2023-02-20T13:10:06;94401.16;;;9.18;35.52
30935;BME280;51033;42.648;23.292;2023-02-20T13:12:34;94389.94;;;9.21;35.52
30935;BME280;51033;42.648;23.292;2023-02-20T13:18:03;94430.66;;;9.30;35.66
30935;BME280;51033;42.648;23.292;2023-02-20T13:20:42;94431.03;;;9.42;36.09
30935;BME280;51033;42.648;23.292;2023-02-20T13:25:47;94393.50;;;9.30;35.98
30935;BME280;51033;42.648;23.292;2023-02-20T13:28:38;94424.66;;;9.57;35.78
30935;BME280;51033;42.648;23.292;2023-02-20T13:57:42;94432.91;;;9.05;36.95
30935;BME280;51033;42.648;23.292;2023-02-20T14:02:41;94423.66;;;8.65;37.58
30935;BME280;51033;42.648;23.292;2023-02-20T14:05:20;94430.88;;;8.78;37.74
30935;BME280;51033;42.648;23.292;2023-02-20T14:07:46;94409.72;;;8.54;37.99
30935;BME280;51033;42.648;23.292;2023-02-20T14:10:17;94435.25;;;8.69;37.71
30935;BME280;51033;42.648;23.292;2023-02-20T14:12:44;94415.63;;;8.70;37.86
30935;BME280;51033;42.648;23.292;2023-02-20T14:15:10;94425.00;;;8.81;37.93
30935;BME280;51033;42.648;23.292;2023-02-20T14:17:36;94394.81;;;8.77;37.92
30935;BME280;51033;42.648;23.292;2023-02-20T14:20:17;94423.78;;;8.92;37.81
30935;BME280;51033;42.648;23.292;2023-02-20T14:22:44;94427.75;;;8.94;38.04
30935;BME280;51033;42.648;23.292;2023-02-20T14:25:25;94419.00;;;8.94;37.70
30935;BME280;51033;42.648;23.292;2023-02-20T14:28:03;94444.00;;;8.88;38.29
30935;BME280;51033;42.648;23.292;2023-02-20T14:30:29;94450.91;;;8.89;38.22
30935;BME280;51033;42.648;23.292;2023-02-20T14:32:56;94449.78;;;8.71;38.18
30935;BME280;51033;42.648;23.292;2023-02-20T14:35:34;94430.66;;;8.55;38.22
30935;BME280;51033;42.648;23.292;2023-02-20T14:40:45;94442.28;;;8.59;38.83
30935;BME280;51033;42.648;23.292;2023-02-20T14:43:15;94441.56;;;8.54;39.15
30935;BME280;51033;42.648;23.292;2023-02-20T14:45:41;94439.44;;;8.75;38.78
30935;BME280;51033;42.648;23.292;2023-02-20T14:48:20;94438.72;;;8.88;38.49
30935;BME280;51033;42.648;23.292;2023-02-20T14:50:46;94435.25;;;8.87;38.26
30935;BME280;51033;42.648;23.292;2023-02-20T14:53:17;94455.97;;;8.85;38.26
30935;BME280;51033;42.648;23.292;2023-02-20T14:55:45;94462.84;;;8.68;38.56
30935;BME280;51033;42.648;23.292;2023-02-20T14:58:13;94447.75;;;8.44;38.98
30935;BME280;51033;42.648;23.292;2023-02-20T15:00:41;94450.22;;;8.59;38.99
30935;BME280;51033;42.648;23.292;2023-02-20T15:03:10;94475.97;;;8.78;38.41
30935;BME280;51033;42.648;23.292;2023-02-20T15:05:42;94469.94;;;8.30;39.38
30935;BME280;51033;42.648;23.292;2023-02-20T15:10:45;94476.13;;;8.20;40.02
30935;BME280;51033;42.648;23.292;2023-02-20T15:13:24;94478.22;;;8.23;39.84
30935;BME280;51033;42.648;23.292;2023-02-20T15:16:04;94447.53;;;7.93;40.09
30935;BME280;51033;42.648;23.292;2023-02-20T15:18:35;94473.03;;;8.13;40.32
30935;BME280;51033;42.648;23.292;2023-02-20T15:21:04;94452.44;;;8.05;40.30
30935;BME280;51033;42.648;23.292;2023-02-20T15:23:38;94442.19;;;7.98;40.36
30935;BME280;51033;42.648;23.292;2023-02-20T15:26:33;94474.53;;;7.95;40.47
30935;BME280;51033;42.648;23.292;2023-02-20T15:29:21;94479.50;;;8.02;40.36